.
WxDataArchive / Data Records for 2015-05-31
2015-05-30 May 2015 2015-06-01

Data Records for Sunday, 31 May 2015

Time	Temp	Chill	HIndex	Humid	Dewpt	 Wind 	HiWind	WindDir	Rain 	Barom
-----	----	-----	------	-----	-----	------	------	-------	-----	-----
00:00	60.2	60.2	60.2	94	58.5	1	4	90	0.01	29.943 
00:05	59.9	59.9	59.9	94	58.2	2	6	90	0.00	29.943 
00:10	59.8	59.8	59.8	94	58.1	2	6	90	0.00	29.943 
00:15	59.3	59.3	59.3	94	57.6	2	11	90	0.00	29.949 
00:20	59.2	59.2	59.2	94	57.5	1	5	90	0.00	29.949 
00:25	59.2	59.2	59.2	94	57.5	2	12	112	0.00	29.949 
00:30	59.0	59.0	59.0	94	57.3	1	12	112	0.00	29.945 
00:35	59.0	59.0	59.0	94	57.3	2	9	112	0.00	29.945 
00:40	58.4	58.4	58.4	93	56.4	2	6	90	0.00	29.945 
00:45	58.0	58.0	58.0	93	56.0	1	9	90	0.00	29.955 
00:50	57.6	57.6	57.6	93	55.6	1	9	90	0.00	29.955 
00:55	57.5	57.5	57.5	93	55.5	3	7	90	0.00	29.955 
01:00	57.0	57.0	57.0	93	55.0	3	9	90	0.00	29.952 
01:05	56.9	56.9	56.9	93	54.9	2	5	90	0.00	29.952 
01:10	56.6	56.6	56.6	93	54.6	4	11	112	0.00	29.952 
01:15	56.5	56.5	56.5	93	54.5	5	14	90	0.00	29.963 
01:20	56.5	56.5	56.5	93	54.5	3	10	90	0.00	29.963 
01:25	56.5	56.5	56.5	93	54.5	2	10	90	0.00	29.963 
01:30	56.3	56.3	56.3	92	54.0	4	7	90	0.00	29.977 
01:35	56.2	56.2	56.2	92	53.9	3	9	112	0.00	29.977 
01:40	56.0	56.0	56.0	92	53.7	3	9	90	0.00	29.977 
01:45	55.9	55.9	55.9	92	53.6	4	10	90	0.01	29.975 
01:50	55.9	55.9	55.9	92	53.6	3	6	90	0.00	29.975 
01:55	55.7	55.7	55.7	92	53.4	5	10	90	0.00	29.975 
02:00	55.6	55.6	55.6	93	53.6	3	11	90	0.01	29.976 
02:05	55.6	55.6	55.6	93	53.6	2	10	68	0.00	29.976 
02:10	55.6	55.6	55.6	93	53.6	1	6	112	0.00	29.976 
02:15	55.4	55.4	55.4	93	53.4	3	8	90	0.00	29.964 
02:20	55.3	55.3	55.3	93	53.3	2	5	112	0.00	29.964 
02:25	55.1	55.1	55.1	93	53.1	2	7	90	0.00	29.964 
02:30	54.8	54.8	54.8	93	52.8	4	12	90	0.00	29.967 
02:35	54.8	54.8	54.8	93	52.8	3	13	90	0.00	29.967 
02:40	54.7	54.7	54.7	93	52.7	3	9	90	0.00	29.967 
02:45	54.7	54.7	54.7	93	52.7	2	7	90	0.00	29.954 
02:50	54.5	54.5	54.5	93	52.5	2	6	90	0.01	29.954 
02:55	54.5	54.5	54.5	93	52.5	1	6	112	0.00	29.954 
03:00	54.4	54.4	54.4	93	52.4	2	6	112	0.00	29.948 
03:05	54.4	54.4	54.4	93	52.4	2	6	112	0.00	29.948 
03:10	54.4	54.4	54.4	94	52.7	2	6	68	0.00	29.948 
03:15	54.2	54.2	54.2	94	52.5	2	9	112	0.00	29.950 
03:20	54.1	54.1	54.1	94	52.4	3	9	90	0.00	29.950 
03:25	54.1	54.1	54.1	94	52.4	3	9	112	0.00	29.950 
03:30	54.1	54.1	54.1	94	52.4	2	10	90	0.00	29.950 
03:35	54.1	54.1	54.1	94	52.4	3	11	90	0.00	29.950 
03:40	53.9	53.9	53.9	94	52.2	3	10	90	0.00	29.950 
03:45	53.9	53.9	53.9	94	52.2	2	13	90	0.00	29.946 
03:50	53.8	53.8	53.8	93	51.8	4	14	90	0.00	29.946 
03:55	53.8	53.8	53.8	93	51.8	4	12	112	0.00	29.946 
04:00	53.9	53.9	53.9	93	51.9	2	11	90	0.00	29.949 
04:05	53.9	53.9	53.9	93	51.9	2	9	90	0.01	29.949 
04:10	53.9	53.9	53.9	93	51.9	3	10	90	0.01	29.949 
04:15	53.8	53.8	53.8	93	51.8	1	4	90	0.00	29.952 
04:20	53.6	53.6	53.6	93	51.6	3	10	90	0.00	29.952 
04:25	53.6	53.6	53.6	93	51.6	2	7	90	0.00	29.952 
04:30	53.5	53.5	53.5	93	51.5	3	7	68	0.01	29.952 
04:35	53.2	53.2	53.2	94	51.5	2	6	90	0.01	29.952 
04:40	53.1	53.1	53.1	93	51.1	3	12	90	0.01	29.952 
04:45	52.9	52.9	52.9	94	51.2	2	7	90	0.01	29.956 
04:50	52.9	52.9	52.9	94	51.2	3	7	90	0.00	29.956 
04:55	52.9	52.9	52.9	94	51.2	2	6	90	0.00	29.956 
05:00	52.9	52.9	52.9	94	51.2	2	7	90	0.00	29.959 
05:05	52.9	52.9	52.9	94	51.2	2	6	90	0.00	29.959 
05:10	53.1	53.1	53.1	94	51.4	1	6	90	0.00	29.959 
05:15	53.1	53.1	53.1	94	51.4	1	5	90	0.00	29.953 
05:20	52.9	52.9	52.9	94	51.2	3	12	90	0.00	29.953 
05:25	52.8	52.8	52.8	94	51.1	2	7	112	0.00	29.953 
05:30	52.8	52.8	52.8	94	51.1	2	9	112	0.00	29.956 
05:35	52.8	52.8	52.8	94	51.1	3	8	90	0.00	29.956 
05:40	52.6	52.6	52.6	94	50.9	4	11	90	0.00	29.956 
05:45	52.6	52.6	52.6	94	50.9	2	10	90	0.00	29.952 
05:50	52.6	52.6	52.6	94	50.9	2	10	90	0.00	29.952 
05:55	52.6	52.6	52.6	94	50.9	1	6	112	0.00	29.952 
06:00	52.5	52.5	52.5	94	50.8	3	10	90	0.00	29.952 
06:05	52.3	52.3	52.3	94	50.6	3	7	90	0.00	29.952 
06:10	52.2	52.2	52.2	94	50.5	2	6	90	0.01	29.952 
06:15	52.2	52.2	52.2	94	50.5	3	8	112	0.00	29.950 
06:20	52.0	52.0	52.0	94	50.3	3	9	112	0.00	29.950 
06:25	51.9	51.9	51.9	94	50.2	3	10	68	0.01	29.950 
06:30	51.7	51.7	51.7	94	50.0	4	11	90	0.02	29.951 
06:35	51.7	51.7	51.7	94	50.0	2	12	112	0.01	29.951 
06:40	51.6	51.6	51.6	94	49.9	3	8	90	0.03	29.951 
06:45	51.6	51.6	51.6	94	49.9	2	9	112	0.02	29.953 
06:50	51.6	51.6	51.6	94	49.9	1	4	90	0.01	29.953 
06:55	51.6	51.6	51.6	94	49.9	2	7	112	0.01	29.953 
07:00	51.6	51.6	51.6	94	49.9	2	6	90	0.02	29.953 
07:05	51.4	51.4	51.4	94	49.7	1	6	90	0.01	29.953 
07:10	51.4	51.4	51.4	94	49.7	2	11	90	0.01	29.953 
07:15	51.3	51.3	51.3	94	49.6	2	6	112	0.01	29.953 
07:20	51.3	51.3	51.3	94	49.6	2	9	112	0.01	29.953 
07:25	51.1	51.1	51.1	94	49.4	2	7	112	0.01	29.953 
07:30	51.0	51.0	51.0	95	49.6	2	7	112	0.04	29.956 
07:35	51.0	51.0	51.0	95	49.6	2	7	68	0.02	29.956 
07:40	51.0	51.0	51.0	95	49.6	1	6	112	0.03	29.956 
07:45	51.0	51.0	51.0	95	49.6	1	5	112	0.01	29.958 
07:50	51.0	51.0	51.0	95	49.6	1	5	90	0.02	29.958 
07:55	50.8	50.8	50.8	95	49.4	1	4	90	0.02	29.958 
08:00	50.8	50.8	50.8	95	49.4	2	6	90	0.01	29.965 
08:05	50.7	50.7	50.7	95	49.3	2	9	112	0.01	29.965 
08:10	50.7	50.7	50.7	95	49.3	3	9	90	0.03	29.965 
08:15	50.7	50.7	50.7	95	49.3	2	6	90	0.02	29.967 
08:20	50.8	50.8	50.8	95	49.4	1	3	90	0.01	29.967 
08:25	51.0	51.0	51.0	95	49.6	0	3	90	0.02	29.967 
08:30	51.0	51.0	51.0	95	49.6	1	3	90	0.01	29.970 
08:35	51.0	51.0	51.0	95	49.6	1	5	90	0.00	29.970 
08:40	51.0	51.0	51.0	95	49.6	2	6	112	0.01	29.970 
08:45	50.8	50.8	50.8	95	49.4	2	9	45	0.00	29.965 
08:50	50.8	50.8	50.8	95	49.4	2	7	90	0.00	29.965 
08:55	50.8	50.8	50.8	95	49.4	1	6	112	0.00	29.965 
09:00	51.0	51.0	51.0	95	49.6	1	3	112	0.00	29.974 
09:05	51.0	51.0	51.0	95	49.6	1	5	112	0.01	29.974 
09:10	51.0	51.0	51.0	95	49.6	1	7	112	0.02	29.974 
09:15	50.8	50.8	50.8	95	49.4	1	7	90	0.07	29.973 
09:20	50.7	50.7	50.7	95	49.3	1	4	90	0.06	29.973 
09:25	50.5	50.5	50.5	95	49.1	1	4	90	0.11	29.973 
09:30	50.4	50.4	50.4	95	49.0	1	5	90	0.07	29.981 
09:35	50.4	50.4	50.4	95	49.0	0	2	90	0.06	29.981 
09:40	50.4	50.4	50.4	95	49.0	1	6	90	0.06	29.981 
09:45	50.4	50.4	50.4	95	49.0	1	6	225	0.05	29.990 
09:50	50.4	50.4	50.4	95	49.0	1	7	112	0.07	29.990 
09:55	50.4	50.4	50.4	95	49.0	1	5	112	0.06	29.990 
10:00	50.5	50.5	50.5	95	49.1	1	6	112	0.03	29.987 
10:05	50.7	50.7	50.7	95	49.3	1	5	68	0.01	29.987 
10:10	50.8	50.8	50.8	96	49.7	1	6	68	0.01	29.987 
10:15	50.8	50.8	50.8	95	49.4	1	5	90	0.00	29.992 
10:20	51.0	51.0	51.0	95	49.6	0	3	90	0.00	29.992 
10:25	51.0	51.0	51.0	95	49.6	1	7	90	0.00	29.992 
10:30	51.3	51.3	51.3	96	50.2	1	4	112	0.00	30.000 
10:35	51.3	51.3	51.3	96	50.2	1	4	90	0.01	30.000 
10:40	51.4	51.4	51.4	96	50.3	1	6	68	0.00	30.000 
10:45	51.6	51.6	51.6	96	50.5	1	4	68	0.00	30.000 
10:50	51.6	51.6	51.6	96	50.5	1	3	315	0.00	30.000 
10:55	51.6	51.6	51.6	95	50.2	2	9	135	0.00	30.000 
11:00	51.6	51.6	51.6	96	50.5	1	6	68	0.00	30.005 
11:05	51.6	51.6	51.6	95	50.2	1	6	270	0.00	30.005 
11:10	51.6	51.6	51.6	95	50.2	3	11	90	0.00	30.005 
11:15	51.7	51.7	51.7	95	50.3	1	4	90	0.00	30.016 
11:20	51.7	51.7	51.7	95	50.3	2	10	180	0.01	30.016 
11:25	51.9	51.9	51.9	95	50.5	2	6	112	0.00	30.016 
11:30	51.9	51.9	51.9	95	50.5	3	8	112	0.01	30.012 
11:35	51.9	51.9	51.9	95	50.5	5	15	90	0.00	30.012 
11:40	52.2	52.2	52.2	95	50.8	3	15	90	0.00	30.012 
11:45	52.5	52.5	52.5	95	51.1	1	4	90	0.01	30.025 
11:50	52.8	52.8	52.8	95	51.4	0	2	90	0.00	30.025 
11:55	52.8	52.8	52.8	95	51.4	2	8	315	0.00	30.025 
12:00	52.6	52.6	52.6	95	51.2	3	10	90	0.00	30.026 
12:05	52.8	52.8	52.8	95	51.4	2	10	112	0.00	30.026 
12:10	53.1	53.1	53.1	95	51.7	1	6	90	0.00	30.026 
12:15	53.3	53.3	53.3	95	51.9	1	7	22	0.00	30.030 
12:20	53.3	53.3	53.3	95	51.9	2	13	112	0.00	30.030 
12:25	53.6	53.6	53.6	95	52.2	2	7	90	0.00	30.030 
12:30	53.6	53.6	53.6	95	52.2	2	7	90	0.00	30.033 
12:35	53.5	53.5	53.5	94	51.8	2	7	68	0.00	30.033 
12:40	53.8	53.8	53.8	95	52.4	1	7	68	0.00	30.033 
12:45	53.8	53.8	53.8	94	52.1	2	5	112	0.00	30.038 
12:50	53.6	53.6	53.6	94	51.9	2	10	90	0.00	30.038 
12:55	53.6	53.6	53.6	94	51.9	2	7	112	0.00	30.038 
13:00	53.9	53.9	53.9	94	52.2	1	6	112	0.00	30.041 
13:05	53.6	53.6	53.6	93	51.6	2	7	90	0.00	30.041 
13:10	53.8	53.8	53.8	93	51.8	3	10	90	0.00	30.041 
13:15	53.9	53.9	53.9	92	51.6	2	6	112	0.00	30.044 
13:20	53.9	53.9	53.9	92	51.6	2	10	90	0.00	30.044 
13:25	54.1	54.1	54.1	92	51.8	2	6	90	0.00	30.044 
13:30	54.4	54.4	54.4	93	52.4	2	5	90	0.00	30.045 
13:35	54.2	54.2	54.2	91	51.6	2	7	90	0.00	30.045 
13:40	54.4	54.4	54.4	90	51.5	2	7	112	0.00	30.045 
13:45	54.5	54.5	54.5	90	51.6	1	6	90	0.00	30.057 
13:50	54.7	54.7	54.7	90	51.8	1	4	158	0.00	30.057 
13:55	54.7	54.7	54.7	91	52.1	0	3	90	0.00	30.057 
14:00	54.5	54.5	54.5	91	51.9	1	3	68	0.00	30.072 
14:05	54.4	54.4	54.4	91	51.8	0	3	68	0.01	30.072 
14:10	54.2	54.2	54.2	92	51.9	2	7	90	0.00	30.072 
14:15	54.5	54.5	54.5	92	52.2	0	3	112	0.00	30.070 
14:20	54.7	54.7	54.7	92	52.4	0	2	0	0.00	30.070 
14:25	54.8	54.8	54.8	92	52.5	1	5	90	0.00	30.070 
14:30	54.8	54.8	54.8	92	52.5	2	5	112	0.00	30.073 
14:35	54.7	54.7	54.7	92	52.4	1	6	90	0.00	30.073 
14:40	54.7	54.7	54.7	92	52.4	1	6	22	0.00	30.073 
14:45	54.5	54.5	54.5	92	52.2	1	3	68	0.00	30.077 
14:50	54.5	54.5	54.5	92	52.2	1	4	112	0.01	30.077 
14:55	54.5	54.5	54.5	92	52.2	0	2	90	0.00	30.077 
15:00	54.1	54.1	54.1	92	51.8	1	6	270	0.00	30.084 
15:05	53.9	53.9	53.9	92	51.6	0	3	270	0.00	30.084 
15:10	53.6	53.6	53.6	92	51.3	0	2	202	0.00	30.084 
15:15	53.6	53.6	53.6	92	51.3	1	3	202	0.00	30.088 
15:20	53.6	53.6	53.6	92	51.3	1	4	225	0.00	30.088 
15:25	53.6	53.6	53.6	92	51.3	0	3	292	0.00	30.088 
15:30	53.5	53.5	53.5	92	51.2	1	4	292	0.00	30.090 
15:35	53.1	53.1	53.1	92	50.8	2	6	0	0.00	30.090 
15:40	52.8	52.8	52.8	91	50.2	1	5	315	0.00	30.090 
15:45	52.6	52.6	52.6	92	50.3	1	3	292	0.00	30.090 
15:50	52.6	52.6	52.6	92	50.3	1	5	315	0.00	30.090 
15:55	52.5	52.5	52.5	92	50.2	1	4	315	0.00	30.090 
16:00	52.6	52.6	52.6	92	50.3	1	5	315	0.00	30.094 
16:05	52.5	52.5	52.5	91	49.9	1	6	315	0.00	30.094 
16:10	52.6	52.6	52.6	91	50.0	2	7	135	0.00	30.094 
16:15	52.8	52.8	52.8	91	50.2	1	5	112	0.00	30.091 
16:20	53.1	53.1	53.1	91	50.5	0	2	135	0.00	30.091 
16:25	53.3	53.3	53.3	91	50.7	1	6	90	0.00	30.091 
16:30	53.3	53.3	53.3	90	50.4	1	4	90	0.00	30.091 
16:35	53.3	53.3	53.3	89	50.1	1	4	45	0.00	30.091 
16:40	53.3	53.3	53.3	89	50.1	1	4	22	0.00	30.091 
16:45	53.2	53.2	53.2	88	49.7	1	4	158	0.00	30.094 
16:50	53.2	53.2	53.2	88	49.7	1	10	112	0.00	30.094 
16:55	53.2	53.2	53.2	88	49.7	1	7	315	0.00	30.094 
17:00	53.1	53.1	53.1	88	49.6	2	6	315	0.00	30.090 
17:05	53.1	53.1	53.1	88	49.6	1	4	112	0.00	30.090 
17:10	53.3	53.3	53.3	88	49.8	1	3	135	0.00	30.090 
17:15	53.3	53.3	53.3	88	49.8	1	5	338	0.00	30.094 
17:20	53.2	53.2	53.2	88	49.7	0	3	315	0.00	30.094 
17:25	53.2	53.2	53.2	88	49.7	1	4	292	0.00	30.094 
17:30	53.1	53.1	53.1	88	49.6	1	3	45	0.00	30.108 
17:35	52.8	52.8	52.8	88	49.3	1	5	315	0.00	30.108 
17:40	52.6	52.6	52.6	88	49.1	1	5	338	0.00	30.108 
17:45	52.6	52.6	52.6	88	49.1	1	5	135	0.00	30.111 
17:50	52.8	52.8	52.8	88	49.3	1	5	112	0.00	30.111 
17:55	52.8	52.8	52.8	88	49.3	1	4	112	0.00	30.111 
18:00	52.9	52.9	52.9	88	49.4	0	3	315	0.00	30.110 
18:05	53.2	53.2	53.2	88	49.7	2	5	112	0.00	30.110 
18:10	53.3	53.3	53.3	87	49.5	1	4	112	0.00	30.110 
18:15	53.5	53.5	53.5	87	49.7	0	4	68	0.00	30.107 
18:20	53.6	53.6	53.6	86	49.5	1	7	68	0.00	30.107 
18:25	53.8	53.8	53.8	86	49.7	2	5	112	0.00	30.107 
18:30	53.8	53.8	53.8	85	49.4	2	7	112	0.00	30.107 
18:35	53.9	53.9	53.9	85	49.5	1	3	90	0.00	30.107 
18:40	54.1	54.1	54.1	85	49.7	1	3	90	0.00	30.107 
18:45	54.1	54.1	54.1	85	49.7	1	5	90	0.00	30.104 
18:50	54.1	54.1	54.1	84	49.4	1	4	90	0.00	30.104 
18:55	54.2	54.2	54.2	85	49.8	1	4	90	0.00	30.104 
19:00	54.4	54.4	54.4	84	49.7	1	3	90	0.00	30.106 
19:05	54.4	54.4	54.4	84	49.7	0	2	90	0.00	30.106 
19:10	54.5	54.5	54.5	84	49.8	1	4	90	0.00	30.106 
19:15	54.5	54.5	54.5	84	49.8	1	5	90	0.00	30.110 
19:20	54.7	54.7	54.7	85	50.3	0	1	90	0.00	30.110 
19:25	54.5	54.5	54.5	84	49.8	1	6	112	0.00	30.110 
19:30	54.5	54.5	54.5	83	49.4	1	6	90	0.00	30.118 
19:35	54.4	54.4	54.4	82	49.0	1	4	45	0.00	30.118 
19:40	54.5	54.5	54.5	82	49.1	1	4	90	0.00	30.118 
19:45	54.4	54.4	54.4	82	49.0	1	5	90	0.00	30.125 
19:50	54.4	54.4	54.4	82	49.0	1	5	158	0.00	30.125 
19:55	54.4	54.4	54.4	82	49.0	2	5	112	0.00	30.125 
20:00	54.4	54.4	54.4	82	49.0	2	5	112	0.00	30.129 
20:05	54.4	54.4	54.4	82	49.0	1	4	90	0.00	30.129 
20:10	54.2	54.2	54.2	82	48.8	1	4	45	0.00	30.129 
20:15	54.2	54.2	54.2	82	48.8	1	3	68	0.00	30.135 
20:20	54.1	54.1	54.1	82	48.7	1	3	90	0.00	30.135 
20:25	54.1	54.1	54.1	83	49.1	0	4	90	0.00	30.135 
20:30	54.1	54.1	54.1	83	49.1	0	2	90	0.00	30.139 
20:35	53.9	53.9	53.9	83	48.9	1	4	90	0.00	30.139 
20:40	53.8	53.8	53.8	83	48.8	1	3	45	0.00	30.139 
20:45	53.8	53.8	53.8	83	48.8	1	5	90	0.00	30.143 
20:50	53.5	53.5	53.5	83	48.5	1	4	90	0.00	30.143 
20:55	53.3	53.3	53.3	83	48.3	1	4	135	0.00	30.143 
21:00	53.2	53.2	53.2	83	48.2	1	4	90	0.00	30.147 
21:05	53.1	53.1	53.1	83	48.1	1	5	90	0.00	30.147 
21:10	52.9	52.9	52.9	83	47.9	1	5	90	0.00	30.147 
21:15	52.8	52.8	52.8	83	47.8	1	4	112	0.00	30.151 
21:20	52.6	52.6	52.6	84	47.9	1	4	112	0.00	30.151 
21:25	52.6	52.6	52.6	84	47.9	1	3	90	0.00	30.151 
21:30	52.5	52.5	52.5	84	47.8	1	4	90	0.00	30.158 
21:35	52.5	52.5	52.5	84	47.8	1	5	270	0.00	30.158 
21:40	52.3	52.3	52.3	84	47.6	1	6	135	0.00	30.158 
21:45	52.0	52.0	52.0	84	47.3	2	7	90	0.00	30.162 
21:50	52.0	52.0	52.0	85	47.6	1	4	90	0.00	30.162 
21:55	51.9	51.9	51.9	85	47.5	0	2	90	0.00	30.162 
22:00	51.9	51.9	51.9	85	47.5	1	3	90	0.00	30.163 
22:05	51.7	51.7	51.7	85	47.3	1	3	90	0.00	30.163 
22:10	51.7	51.7	51.7	85	47.3	0	3	90	0.00	30.163 
22:15	51.6	51.6	51.6	85	47.2	1	3	90	0.00	30.166 
22:20	51.6	51.6	51.6	84	46.9	2	7	112	0.00	30.166 
22:25	51.6	51.6	51.6	84	46.9	1	4	112	0.00	30.166 
22:30	51.4	51.4	51.4	84	46.7	1	3	112	0.00	30.174 
22:35	51.4	51.4	51.4	84	46.7	1	5	158	0.00	30.174 
22:40	51.4	51.4	51.4	84	46.7	1	3	158	0.00	30.174 
22:45	51.3	51.3	51.3	84	46.6	1	3	112	0.00	30.175 
22:50	51.1	51.1	51.1	84	46.4	1	4	90	0.00	30.175 
22:55	51.0	51.0	51.0	84	46.3	0	3	112	0.00	30.175 
23:00	50.8	50.8	50.8	84	46.1	1	4	112	0.00	30.173 
23:05	50.8	50.8	50.8	84	46.1	1	3	90	0.00	30.173 
23:10	50.7	50.7	50.7	84	46.0	0	3	90	0.00	30.173 
23:15	50.7	50.7	50.7	84	46.0	1	3	90	0.00	30.173 
23:20	50.7	50.7	50.7	84	46.0	0	3	90	0.00	30.173 
23:25	50.8	50.8	50.8	84	46.1	0	2	90	0.00	30.173 
23:30	50.7	50.7	50.7	84	46.0	1	4	90	0.00	30.168 
23:35	50.7	50.7	50.7	84	46.0	0	3	112	0.00	30.168 
23:40	50.7	50.7	50.7	84	46.0	0	2	112	0.00	30.168 
23:45	50.7	50.7	50.7	84	46.0	1	5	112	0.00	30.169 
23:50	50.7	50.7	50.7	84	46.0	0	2	112	0.00	30.169 
23:55	50.7	50.7	50.7	84	46.0	0	1	112	0.00	30.169 

CoCoRaHS
IN-AL-39
A2 Web Hosting
Creative Commons License
GoDaddy
search engine by freefind advanced

loaded 2018-11-19 10:38:47 • last modified 2010-11-18 10:43:29
Privacy PolicyDisclaimer
• wx.awcolley.com is powered by PmWiki v.2002016 •
• all content (unless otherwise noted) © 2018 A W Colley